sensor_id;sensor_type;location;lat;lon;timestamp;P1;durP1;ratioP1;P2;durP2;ratioP2
47103;SDS011;32853;52.164;5.400;2022-09-21T00:01:20;8.02;;;2.20;;
47103;SDS011;32853;52.164;5.400;2022-09-21T00:04:01;4.30;;;1.70;;
47103;SDS011;32853;52.164;5.400;2022-09-21T00:06:33;6.25;;;2.00;;
47103;SDS011;32853;52.164;5.400;2022-09-21T00:08:59;6.75;;;1.85;;
47103;SDS011;32853;52.164;5.400;2022-09-21T00:11:28;7.28;;;1.85;;
47103;SDS011;32853;52.164;5.400;2022-09-21T00:14:03;6.18;;;2.00;;
47103;SDS011;32853;52.164;5.400;2022-09-21T00:16:31;8.00;;;2.15;;
47103;SDS011;32853;52.164;5.400;2022-09-21T00:18:57;7.73;;;1.90;;
47103;SDS011;32853;52.164;5.400;2022-09-21T00:21:23;4.00;;;1.73;;
47103;SDS011;32853;52.164;5.400;2022-09-21T00:23:48;5.60;;;1.90;;
47103;SDS011;32853;52.164;5.400;2022-09-21T00:26:15;12.15;;;2.03;;
47103;SDS011;32853;52.164;5.400;2022-09-21T00:28:43;9.13;;;2.13;;
47103;SDS011;32853;52.164;5.400;2022-09-21T00:31:11;4.60;;;1.88;;
47103;SDS011;32853;52.164;5.400;2022-09-21T00:33:38;5.25;;;1.90;;
47103;SDS011;32853;52.164;5.400;2022-09-21T00:36:12;6.15;;;1.80;;
47103;SDS011;32853;52.164;5.400;2022-09-21T00:38:40;5.77;;;1.90;;
47103;SDS011;32853;52.164;5.400;2022-09-21T00:41:06;6.30;;;2.40;;
47103;SDS011;32853;52.164;5.400;2022-09-21T00:43:33;6.60;;;2.30;;
47103;SDS011;32853;52.164;5.400;2022-09-21T00:46:02;5.97;;;1.85;;
47103;SDS011;32853;52.164;5.400;2022-09-21T00:48:32;6.07;;;2.10;;
47103;SDS011;32853;52.164;5.400;2022-09-21T00:50:59;4.75;;;1.73;;
47103;SDS011;32853;52.164;5.400;2022-09-21T00:53:30;4.07;;;1.77;;
47103;SDS011;32853;52.164;5.400;2022-09-21T00:55:56;9.77;;;2.35;;
47103;SDS011;32853;52.164;5.400;2022-09-21T00:58:28;6.22;;;2.47;;
47103;SDS011;32853;52.164;5.400;2022-09-21T01:00:55;7.22;;;2.40;;
47103;SDS011;32853;52.164;5.400;2022-09-21T01:03:25;7.43;;;2.55;;
47103;SDS011;32853;52.164;5.400;2022-09-21T01:05:53;6.75;;;1.90;;
47103;SDS011;32853;52.164;5.400;2022-09-21T01:08:18;6.15;;;1.88;;
47103;SDS011;32853;52.164;5.400;2022-09-21T01:16:00;10.00;;;1.87;;
47103;SDS011;32853;52.164;5.400;2022-09-21T01:24:54;6.93;;;2.00;;
47103;SDS011;32853;52.164;5.400;2022-09-21T01:30:27;6.38;;;2.28;;
47103;SDS011;32853;52.164;5.400;2022-09-21T01:38:35;4.93;;;2.00;;
47103;SDS011;32853;52.164;5.400;2022-09-21T01:41:04;7.72;;;2.33;;
47103;SDS011;32853;52.164;5.400;2022-09-21T01:43:38;5.93;;;1.80;;
47103;SDS011;32853;52.164;5.400;2022-09-21T01:46:06;6.80;;;2.55;;
47103;SDS011;32853;52.164;5.400;2022-09-21T01:48:38;10.07;;;2.80;;
47103;SDS011;32853;52.164;5.400;2022-09-21T01:51:09;5.80;;;2.33;;
47103;SDS011;32853;52.164;5.400;2022-09-21T01:53:39;7.40;;;2.73;;
47103;SDS011;32853;52.164;5.400;2022-09-21T02:01:17;7.53;;;2.17;;
47103;SDS011;32853;52.164;5.400;2022-09-21T02:03:50;6.40;;;1.80;;
47103;SDS011;32853;52.164;5.400;2022-09-21T02:06:19;4.95;;;1.75;;
47103;SDS011;32853;52.164;5.400;2022-09-21T02:08:50;7.18;;;1.92;;
47103;SDS011;32853;52.164;5.400;2022-09-21T02:11:15;4.78;;;1.90;;
47103;SDS011;32853;52.164;5.400;2022-09-21T02:13:42;5.65;;;1.92;;
47103;SDS011;32853;52.164;5.400;2022-09-21T02:16:17;5.65;;;1.63;;
47103;SDS011;32853;52.164;5.400;2022-09-21T02:18:53;6.75;;;1.98;;
47103;SDS011;32853;52.164;5.400;2022-09-21T02:26:33;6.45;;;1.92;;
47103;SDS011;32853;52.164;5.400;2022-09-21T02:29:06;7.47;;;1.83;;
47103;SDS011;32853;52.164;5.400;2022-09-21T02:31:50;4.72;;;1.63;;
47103;SDS011;32853;52.164;5.400;2022-09-21T02:34:29;5.78;;;1.70;;
47103;SDS011;32853;52.164;5.400;2022-09-21T02:37:06;4.50;;;1.40;;
47103;SDS011;32853;52.164;5.400;2022-09-21T02:39:53;6.95;;;2.08;;
47103;SDS011;32853;52.164;5.400;2022-09-21T02:42:28;8.80;;;1.98;;
47103;SDS011;32853;52.164;5.400;2022-09-21T02:45:12;4.55;;;1.55;;
47103;SDS011;32853;52.164;5.400;2022-09-21T02:53:28;8.65;;;2.70;;
47103;SDS011;32853;52.164;5.400;2022-09-21T02:55:58;4.53;;;1.63;;
47103;SDS011;32853;52.164;5.400;2022-09-21T02:58:31;4.60;;;1.58;;
47103;SDS011;32853;52.164;5.400;2022-09-21T03:01:08;4.03;;;2.00;;
47103;SDS011;32853;52.164;5.400;2022-09-21T03:03:41;6.53;;;2.10;;
47103;SDS011;32853;52.164;5.400;2022-09-21T03:06:08;4.17;;;1.70;;
47103;SDS011;32853;52.164;5.400;2022-09-21T03:08:40;5.40;;;1.80;;
47103;SDS011;32853;52.164;5.400;2022-09-21T03:11:09;4.05;;;1.60;;
47103;SDS011;32853;52.164;5.400;2022-09-21T03:13:35;3.78;;;1.60;;
47103;SDS011;32853;52.164;5.400;2022-09-21T03:24:35;6.40;;;2.60;;
47103;SDS011;32853;52.164;5.400;2022-09-21T03:27:27;7.80;;;3.53;;
47103;SDS011;32853;52.164;5.400;2022-09-21T03:29:52;2.65;;;1.42;;
47103;SDS011;32853;52.164;5.400;2022-09-21T03:32:21;4.68;;;1.60;;
47103;SDS011;32853;52.164;5.400;2022-09-21T03:34:56;7.65;;;1.60;;
47103;SDS011;32853;52.164;5.400;2022-09-21T03:37:21;5.72;;;1.73;;
47103;SDS011;32853;52.164;5.400;2022-09-21T03:46:25;3.45;;;1.48;;
47103;SDS011;32853;52.164;5.400;2022-09-21T03:48:52;4.90;;;1.73;;
47103;SDS011;32853;52.164;5.400;2022-09-21T03:51:28;4.03;;;1.60;;
47103;SDS011;32853;52.164;5.400;2022-09-21T03:53:56;3.97;;;1.85;;
47103;SDS011;32853;52.164;5.400;2022-09-21T03:56:22;7.17;;;2.13;;
47103;SDS011;32853;52.164;5.400;2022-09-21T03:58:47;4.43;;;1.53;;
47103;SDS011;32853;52.164;5.400;2022-09-21T04:01:13;6.83;;;1.50;;
47103;SDS011;32853;52.164;5.400;2022-09-21T04:03:49;4.47;;;1.73;;
47103;SDS011;32853;52.164;5.400;2022-09-21T04:06:14;15.13;;;2.17;;
47103;SDS011;32853;52.164;5.400;2022-09-21T04:08:48;3.58;;;1.42;;
47103;SDS011;32853;52.164;5.400;2022-09-21T04:11:15;5.80;;;1.55;;
47103;SDS011;32853;52.164;5.400;2022-09-21T04:13:48;3.63;;;1.52;;
47103;SDS011;32853;52.164;5.400;2022-09-21T04:16:15;4.55;;;1.92;;
47103;SDS011;32853;52.164;5.400;2022-09-21T04:18:41;7.72;;;2.90;;
47103;SDS011;32853;52.164;5.400;2022-09-21T04:21:09;4.07;;;2.10;;
47103;SDS011;32853;52.164;5.400;2022-09-21T04:23:34;7.10;;;2.67;;
47103;SDS011;32853;52.164;5.400;2022-09-21T04:26:00;5.30;;;1.90;;
47103;SDS011;32853;52.164;5.400;2022-09-21T04:28:26;4.65;;;1.90;;
47103;SDS011;32853;52.164;5.400;2022-09-21T04:30:52;5.35;;;2.05;;
47103;SDS011;32853;52.164;5.400;2022-09-21T04:33:18;6.37;;;2.00;;
47103;SDS011;32853;52.164;5.400;2022-09-21T04:35:44;5.30;;;1.77;;
47103;SDS011;32853;52.164;5.400;2022-09-21T04:38:10;5.97;;;1.65;;
47103;SDS011;32853;52.164;5.400;2022-09-21T04:40:38;5.65;;;1.77;;
47103;SDS011;32853;52.164;5.400;2022-09-21T04:43:04;4.25;;;1.60;;
47103;SDS011;32853;52.164;5.400;2022-09-21T04:45:30;6.25;;;2.65;;
47103;SDS011;32853;52.164;5.400;2022-09-21T04:47:56;7.60;;;2.10;;
47103;SDS011;32853;52.164;5.400;2022-09-21T04:50:21;7.93;;;2.80;;
47103;SDS011;32853;52.164;5.400;2022-09-21T04:52:47;5.03;;;1.77;;
47103;SDS011;32853;52.164;5.400;2022-09-21T04:55:12;3.80;;;1.83;;
47103;SDS011;32853;52.164;5.400;2022-09-21T04:57:38;7.47;;;1.70;;
47103;SDS011;32853;52.164;5.400;2022-09-21T05:00:04;5.20;;;1.90;;
47103;SDS011;32853;52.164;5.400;2022-09-21T05:02:30;6.22;;;2.20;;
47103;SDS011;32853;52.164;5.400;2022-09-21T05:04:56;4.53;;;2.60;;
47103;SDS011;32853;52.164;5.400;2022-09-21T05:07:21;5.80;;;2.53;;
47103;SDS011;32853;52.164;5.400;2022-09-21T05:09:47;5.20;;;2.20;;
47103;SDS011;32853;52.164;5.400;2022-09-21T05:12:31;5.40;;;2.13;;
47103;SDS011;32853;52.164;5.400;2022-09-21T05:15:00;6.55;;;2.47;;
47103;SDS011;32853;52.164;5.400;2022-09-21T05:17:28;7.57;;;2.30;;
47103;SDS011;32853;52.164;5.400;2022-09-21T05:19:54;8.93;;;3.42;;
47103;SDS011;32853;52.164;5.400;2022-09-21T05:22:19;8.40;;;2.88;;
47103;SDS011;32853;52.164;5.400;2022-09-21T05:24:47;7.53;;;3.67;;
47103;SDS011;32853;52.164;5.400;2022-09-21T05:27:15;8.18;;;3.45;;
47103;SDS011;32853;52.164;5.400;2022-09-21T05:29:40;8.55;;;3.30;;
47103;SDS011;32853;52.164;5.400;2022-09-21T05:32:09;6.50;;;2.95;;
47103;SDS011;32853;52.164;5.400;2022-09-21T05:37:43;7.78;;;2.70;;
47103;SDS011;32853;52.164;5.400;2022-09-21T05:40:22;5.60;;;2.60;;
47103;SDS011;32853;52.164;5.400;2022-09-21T05:45:34;9.27;;;2.92;;
47103;SDS011;32853;52.164;5.400;2022-09-21T05:53:32;7.80;;;3.72;;
47103;SDS011;32853;52.164;5.400;2022-09-21T05:56:06;7.80;;;2.30;;
47103;SDS011;32853;52.164;5.400;2022-09-21T06:04:12;5.03;;;1.70;;
47103;SDS011;32853;52.164;5.400;2022-09-21T06:06:37;3.67;;;1.83;;
47103;SDS011;32853;52.164;5.400;2022-09-21T06:09:03;4.32;;;1.88;;
47103;SDS011;32853;52.164;5.400;2022-09-21T06:11:29;5.90;;;2.03;;
47103;SDS011;32853;52.164;5.400;2022-09-21T06:13:54;6.33;;;2.37;;
47103;SDS011;32853;52.164;5.400;2022-09-21T06:16:19;4.17;;;1.70;;
47103;SDS011;32853;52.164;5.400;2022-09-21T06:18:45;5.47;;;2.10;;
47103;SDS011;32853;52.164;5.400;2022-09-21T06:21:10;4.03;;;1.52;;
47103;SDS011;32853;52.164;5.400;2022-09-21T06:23:41;3.30;;;1.70;;
47103;SDS011;32853;52.164;5.400;2022-09-21T06:26:07;3.30;;;1.50;;
47103;SDS011;32853;52.164;5.400;2022-09-21T06:28:32;7.10;;;2.00;;
47103;SDS011;32853;52.164;5.400;2022-09-21T06:30:57;3.17;;;1.67;;
47103;SDS011;32853;52.164;5.400;2022-09-21T06:33:25;4.10;;;1.73;;
47103;SDS011;32853;52.164;5.400;2022-09-21T06:35:54;7.60;;;1.67;;
47103;SDS011;32853;52.164;5.400;2022-09-21T06:38:21;3.92;;;1.67;;
47103;SDS011;32853;52.164;5.400;2022-09-21T06:40:48;4.40;;;1.33;;
47103;SDS011;32853;52.164;5.400;2022-09-21T06:43:14;4.27;;;1.80;;
47103;SDS011;32853;52.164;5.400;2022-09-21T06:45:40;2.88;;;1.60;;
47103;SDS011;32853;52.164;5.400;2022-09-21T06:48:05;3.60;;;1.60;;
47103;SDS011;32853;52.164;5.400;2022-09-21T06:50:31;6.03;;;1.92;;
47103;SDS011;32853;52.164;5.400;2022-09-21T06:53:02;6.10;;;1.92;;
47103;SDS011;32853;52.164;5.400;2022-09-21T06:55:28;4.70;;;2.20;;
47103;SDS011;32853;52.164;5.400;2022-09-21T07:00:53;5.43;;;3.25;;
47103;SDS011;32853;52.164;5.400;2022-09-21T07:03:18;6.60;;;2.63;;
47103;SDS011;32853;52.164;5.400;2022-09-21T07:05:44;6.43;;;3.07;;
47103;SDS011;32853;52.164;5.400;2022-09-21T07:08:10;6.53;;;3.30;;
47103;SDS011;32853;52.164;5.400;2022-09-21T07:10:35;7.03;;;3.57;;
47103;SDS011;32853;52.164;5.400;2022-09-21T07:13:01;15.63;;;4.20;;
47103;SDS011;32853;52.164;5.400;2022-09-21T07:15:28;8.23;;;3.80;;
47103;SDS011;32853;52.164;5.400;2022-09-21T07:17:53;7.88;;;3.38;;
47103;SDS011;32853;52.164;5.400;2022-09-21T07:20:19;8.63;;;3.75;;
47103;SDS011;32853;52.164;5.400;2022-09-21T07:22:44;12.30;;;3.90;;
47103;SDS011;32853;52.164;5.400;2022-09-21T07:25:10;9.13;;;3.72;;
47103;SDS011;32853;52.164;5.400;2022-09-21T07:27:35;11.02;;;3.78;;
47103;SDS011;32853;52.164;5.400;2022-09-21T07:30:01;5.45;;;3.55;;
47103;SDS011;32853;52.164;5.400;2022-09-21T07:32:32;8.75;;;4.22;;
47103;SDS011;32853;52.164;5.400;2022-09-21T07:34:58;7.93;;;3.60;;
47103;SDS011;32853;52.164;5.400;2022-09-21T07:37:27;9.23;;;3.85;;
47103;SDS011;32853;52.164;5.400;2022-09-21T07:39:55;8.88;;;3.60;;
47103;SDS011;32853;52.164;5.400;2022-09-21T07:42:20;11.60;;;3.65;;
47103;SDS011;32853;52.164;5.400;2022-09-21T07:44:46;11.10;;;4.00;;
47103;SDS011;32853;52.164;5.400;2022-09-21T07:47:12;6.53;;;3.42;;
47103;SDS011;32853;52.164;5.400;2022-09-21T07:49:39;5.65;;;3.53;;
47103;SDS011;32853;52.164;5.400;2022-09-21T07:52:05;8.35;;;3.53;;
47103;SDS011;32853;52.164;5.400;2022-09-21T07:54:30;9.57;;;3.42;;
47103;SDS011;32853;52.164;5.400;2022-09-21T07:56:59;9.27;;;3.05;;
47103;SDS011;32853;52.164;5.400;2022-09-21T07:59:44;7.18;;;2.70;;
47103;SDS011;32853;52.164;5.400;2022-09-21T08:02:10;7.15;;;2.25;;
47103;SDS011;32853;52.164;5.400;2022-09-21T08:04:35;11.52;;;2.85;;
47103;SDS011;32853;52.164;5.400;2022-09-21T08:07:01;5.47;;;2.28;;
47103;SDS011;32853;52.164;5.400;2022-09-21T08:09:26;8.35;;;3.15;;
47103;SDS011;32853;52.164;5.400;2022-09-21T08:11:52;6.85;;;2.53;;
47103;SDS011;32853;52.164;5.400;2022-09-21T08:14:19;10.20;;;2.95;;
47103;SDS011;32853;52.164;5.400;2022-09-21T08:16:47;10.05;;;2.47;;
47103;SDS011;32853;52.164;5.400;2022-09-21T08:21:58;5.05;;;1.70;;
47103;SDS011;32853;52.164;5.400;2022-09-21T08:27:12;4.97;;;1.43;;
47103;SDS011;32853;52.164;5.400;2022-09-21T08:29:37;7.53;;;1.40;;
47103;SDS011;32853;52.164;5.400;2022-09-21T08:32:15;5.57;;;1.13;;
47103;SDS011;32853;52.164;5.400;2022-09-21T08:34:41;5.07;;;0.87;;
47103;SDS011;32853;52.164;5.400;2022-09-21T08:37:15;6.22;;;1.27;;
47103;SDS011;32853;52.164;5.400;2022-09-21T08:45:31;4.82;;;1.35;;
47103;SDS011;32853;52.164;5.400;2022-09-21T08:48:00;4.10;;;1.08;;
47103;SDS011;32853;52.164;5.400;2022-09-21T08:50:50;6.72;;;1.20;;
47103;SDS011;32853;52.164;5.400;2022-09-21T08:53:27;9.53;;;1.90;;
47103;SDS011;32853;52.164;5.400;2022-09-21T08:55:57;3.08;;;1.20;;
47103;SDS011;32853;52.164;5.400;2022-09-21T08:58:24;4.00;;;1.10;;
47103;SDS011;32853;52.164;5.400;2022-09-21T09:01:13;5.95;;;1.80;;
47103;SDS011;32853;52.164;5.400;2022-09-21T09:18:28;8.18;;;0.85;;
47103;SDS011;32853;52.164;5.400;2022-09-21T09:21:08;5.73;;;0.90;;
47103;SDS011;32853;52.164;5.400;2022-09-21T09:23:46;3.30;;;0.70;;
47103;SDS011;32853;52.164;5.400;2022-09-21T09:39:15;3.50;;;0.60;;
47103;SDS011;32853;52.164;5.400;2022-09-21T09:50:42;5.22;;;1.50;;
47103;SDS011;32853;52.164;5.400;2022-09-21T09:53:16;4.07;;;0.40;;
47103;SDS011;32853;52.164;5.400;2022-09-21T09:55:45;6.63;;;0.57;;
47103;SDS011;32853;52.164;5.400;2022-09-21T09:58:17;9.02;;;0.60;;
47103;SDS011;32853;52.164;5.400;2022-09-21T10:01:04;4.47;;;0.60;;
47103;SDS011;32853;52.164;5.400;2022-09-21T10:03:30;5.15;;;1.30;;
47103;SDS011;32853;52.164;5.400;2022-09-21T10:05:55;3.28;;;0.40;;
47103;SDS011;32853;52.164;5.400;2022-09-21T10:11:03;3.60;;;0.80;;
47103;SDS011;32853;52.164;5.400;2022-09-21T10:13:34;3.03;;;0.50;;
47103;SDS011;32853;52.164;5.400;2022-09-21T10:16:19;4.68;;;0.60;;
47103;SDS011;32853;52.164;5.400;2022-09-21T10:18:51;5.20;;;0.60;;
47103;SDS011;32853;52.164;5.400;2022-09-21T10:21:36;3.47;;;0.73;;
47103;SDS011;32853;52.164;5.400;2022-09-21T10:24:20;4.03;;;0.70;;
47103;SDS011;32853;52.164;5.400;2022-09-21T10:27:01;9.15;;;0.80;;
47103;SDS011;32853;52.164;5.400;2022-09-21T10:29:43;6.25;;;0.70;;
47103;SDS011;32853;52.164;5.400;2022-09-21T10:37:32;3.10;;;0.50;;
47103;SDS011;32853;52.164;5.400;2022-09-21T10:40:01;3.70;;;0.95;;
47103;SDS011;32853;52.164;5.400;2022-09-21T10:42:35;4.13;;;0.50;;
47103;SDS011;32853;52.164;5.400;2022-09-21T10:47:38;3.20;;;0.70;;
47103;SDS011;32853;52.164;5.400;2022-09-21T10:50:21;6.18;;;0.70;;
47103;SDS011;32853;52.164;5.400;2022-09-21T10:53:39;4.45;;;0.50;;
47103;SDS011;32853;52.164;5.400;2022-09-21T10:55:59;2.67;;;0.40;;
47103;SDS011;32853;52.164;5.400;2022-09-21T10:58:26;4.60;;;0.85;;
47103;SDS011;32853;52.164;5.400;2022-09-21T11:00:52;5.00;;;0.50;;
47103;SDS011;32853;52.164;5.400;2022-09-21T11:06:00;6.15;;;0.50;;
47103;SDS011;32853;52.164;5.400;2022-09-21T11:08:29;4.03;;;0.60;;
47103;SDS011;32853;52.164;5.400;2022-09-21T11:19:07;3.05;;;0.60;;
47103;SDS011;32853;52.164;5.400;2022-09-21T11:30:15;4.13;;;0.70;;
47103;SDS011;32853;52.164;5.400;2022-09-21T11:43:52;3.83;;;0.28;;
47103;SDS011;32853;52.164;5.400;2022-09-21T11:46:41;3.13;;;0.70;;
47103;SDS011;32853;52.164;5.400;2022-09-21T11:52:22;1.63;;;0.30;;
47103;SDS011;32853;52.164;5.400;2022-09-21T11:55:23;2.58;;;0.30;;
47103;SDS011;32853;52.164;5.400;2022-09-21T12:01:02;2.65;;;0.40;;
47103;SDS011;32853;52.164;5.400;2022-09-21T12:03:40;1.17;;;0.30;;
47103;SDS011;32853;52.164;5.400;2022-09-21T12:14:34;3.63;;;0.40;;
47103;SDS011;32853;52.164;5.400;2022-09-21T12:23:39;2.50;;;0.30;;
47103;SDS011;32853;52.164;5.400;2022-09-21T12:26:18;2.63;;;0.40;;
47103;SDS011;32853;52.164;5.400;2022-09-21T12:28:54;4.82;;;0.40;;
47103;SDS011;32853;52.164;5.400;2022-09-21T12:31:28;2.47;;;0.50;;
47103;SDS011;32853;52.164;5.400;2022-09-21T12:34:03;3.65;;;0.30;;
47103;SDS011;32853;52.164;5.400;2022-09-21T12:39:38;2.70;;;0.40;;
47103;SDS011;32853;52.164;5.400;2022-09-21T12:42:27;4.25;;;0.35;;
47103;SDS011;32853;52.164;5.400;2022-09-21T12:45:05;2.53;;;0.50;;
47103;SDS011;32853;52.164;5.400;2022-09-21T12:55:46;3.92;;;0.25;;
47103;SDS011;32853;52.164;5.400;2022-09-21T13:13:15;2.15;;;0.40;;
47103;SDS011;32853;52.164;5.400;2022-09-21T13:16:06;4.33;;;0.40;;
47103;SDS011;32853;52.164;5.400;2022-09-21T13:19:15;1.60;;;0.40;;
47103;SDS011;32853;52.164;5.400;2022-09-21T13:24:57;3.20;;;0.70;;
47103;SDS011;32853;52.164;5.400;2022-09-21T13:30:33;3.05;;;0.52;;
47103;SDS011;32853;52.164;5.400;2022-09-21T13:33:02;4.43;;;0.50;;
47103;SDS011;32853;52.164;5.400;2022-09-21T13:41:03;5.88;;;0.60;;
47103;SDS011;32853;52.164;5.400;2022-09-21T13:46:44;5.07;;;0.50;;
47103;SDS011;32853;52.164;5.400;2022-09-21T13:52:25;6.67;;;0.70;;
47103;SDS011;32853;52.164;5.400;2022-09-21T13:55:02;3.45;;;0.50;;
47103;SDS011;32853;52.164;5.400;2022-09-21T13:57:35;4.00;;;0.55;;
47103;SDS011;32853;52.164;5.400;2022-09-21T14:02:45;3.42;;;0.47;;
47103;SDS011;32853;52.164;5.400;2022-09-21T14:07:57;2.10;;;0.45;;
47103;SDS011;32853;52.164;5.400;2022-09-21T14:10:32;2.38;;;0.40;;
47103;SDS011;32853;52.164;5.400;2022-09-21T14:13:00;1.45;;;0.30;;
47103;SDS011;32853;52.164;5.400;2022-09-21T14:20:33;2.92;;;0.40;;
47103;SDS011;32853;52.164;5.400;2022-09-21T14:25:47;10.70;;;1.40;;
47103;SDS011;32853;52.164;5.400;2022-09-21T14:31:25;3.33;;;0.65;;
47103;SDS011;32853;52.164;5.400;2022-09-21T14:33:54;1.92;;;0.45;;
47103;SDS011;32853;52.164;5.400;2022-09-21T14:36:35;3.70;;;0.60;;
47103;SDS011;32853;52.164;5.400;2022-09-21T14:39:18;2.72;;;0.55;;
47103;SDS011;32853;52.164;5.400;2022-09-21T14:41:48;2.45;;;0.40;;
47103;SDS011;32853;52.164;5.400;2022-09-21T14:44:20;2.20;;;0.40;;
47103;SDS011;32853;52.164;5.400;2022-09-21T14:56:03;15.60;;;6.70;;
47103;SDS011;32853;52.164;5.400;2022-09-21T15:01:20;4.17;;;0.40;;
47103;SDS011;32853;52.164;5.400;2022-09-21T15:06:59;3.85;;;0.73;;
47103;SDS011;32853;52.164;5.400;2022-09-21T15:15:38;4.25;;;0.82;;
47103;SDS011;32853;52.164;5.400;2022-09-21T15:18:25;4.38;;;0.68;;
47103;SDS011;32853;52.164;5.400;2022-09-21T15:20:55;2.00;;;0.40;;
47103;SDS011;32853;52.164;5.400;2022-09-21T15:23:36;1.92;;;0.65;;
47103;SDS011;32853;52.164;5.400;2022-09-21T15:26:06;3.38;;;0.40;;
47103;SDS011;32853;52.164;5.400;2022-09-21T15:28:35;3.90;;;0.40;;
47103;SDS011;32853;52.164;5.400;2022-09-21T15:31:03;2.67;;;0.32;;
47103;SDS011;32853;52.164;5.400;2022-09-21T15:33:32;2.00;;;0.40;;
47103;SDS011;32853;52.164;5.400;2022-09-21T15:36:42;4.97;;;0.40;;
47103;SDS011;32853;52.164;5.400;2022-09-21T15:39:21;3.35;;;0.57;;
47103;SDS011;32853;52.164;5.400;2022-09-21T15:42:22;4.50;;;0.57;;
47103;SDS011;32853;52.164;5.400;2022-09-21T15:53:51;1.95;;;0.40;;
47103;SDS011;32853;52.164;5.400;2022-09-21T15:56:24;4.05;;;0.77;;
47103;SDS011;32853;52.164;5.400;2022-09-21T16:04:58;5.35;;;0.60;;
47103;SDS011;32853;52.164;5.400;2022-09-21T16:07:34;3.65;;;0.65;;
47103;SDS011;32853;52.164;5.400;2022-09-21T16:16:20;2.40;;;0.30;;
47103;SDS011;32853;52.164;5.400;2022-09-21T16:18:50;2.63;;;0.80;;
47103;SDS011;32853;52.164;5.400;2022-09-21T16:21:33;1.98;;;0.40;;
47103;SDS011;32853;52.164;5.400;2022-09-21T16:24:10;8.35;;;3.90;;
47103;SDS011;32853;52.164;5.400;2022-09-21T16:26:48;7.78;;;2.75;;
47103;SDS011;32853;52.164;5.400;2022-09-21T16:29:24;9.45;;;1.73;;
47103;SDS011;32853;52.164;5.400;2022-09-21T16:34:43;5.03;;;0.65;;
47103;SDS011;32853;52.164;5.400;2022-09-21T16:39:53;3.55;;;0.68;;
47103;SDS011;32853;52.164;5.400;2022-09-21T16:42:22;3.20;;;0.50;;
47103;SDS011;32853;52.164;5.400;2022-09-21T16:44:52;3.35;;;0.40;;
47103;SDS011;32853;52.164;5.400;2022-09-21T16:47:22;1.73;;;0.40;;
47103;SDS011;32853;52.164;5.400;2022-09-21T16:49:52;4.40;;;0.82;;
47103;SDS011;32853;52.164;5.400;2022-09-21T16:52:20;3.55;;;1.17;;
47103;SDS011;32853;52.164;5.400;2022-09-21T16:58:23;6.78;;;1.65;;
47103;SDS011;32853;52.164;5.400;2022-09-21T17:00:55;5.63;;;0.77;;
47103;SDS011;32853;52.164;5.400;2022-09-21T17:03:22;3.50;;;0.50;;
47103;SDS011;32853;52.164;5.400;2022-09-21T17:06:01;3.10;;;0.40;;
47103;SDS011;32853;52.164;5.400;2022-09-21T17:08:29;3.63;;;1.00;;
47103;SDS011;32853;52.164;5.400;2022-09-21T17:10:56;3.80;;;0.50;;
47103;SDS011;32853;52.164;5.400;2022-09-21T17:13:34;3.20;;;0.60;;
47103;SDS011;32853;52.164;5.400;2022-09-21T17:22:16;2.97;;;0.63;;
47103;SDS011;32853;52.164;5.400;2022-09-21T17:24:43;6.30;;;0.55;;
47103;SDS011;32853;52.164;5.400;2022-09-21T17:27:23;3.90;;;0.70;;
47103;SDS011;32853;52.164;5.400;2022-09-21T17:30:10;5.05;;;1.08;;
47103;SDS011;32853;52.164;5.400;2022-09-21T17:32:39;5.93;;;0.60;;
47103;SDS011;32853;52.164;5.400;2022-09-21T17:37:52;4.00;;;1.10;;
47103;SDS011;32853;52.164;5.400;2022-09-21T17:40:32;4.47;;;0.70;;
47103;SDS011;32853;52.164;5.400;2022-09-21T17:48:17;5.87;;;1.83;;
47103;SDS011;32853;52.164;5.400;2022-09-21T17:50:48;5.88;;;1.20;;
47103;SDS011;32853;52.164;5.400;2022-09-21T17:53:14;4.82;;;1.08;;
47103;SDS011;32853;52.164;5.400;2022-09-21T17:56:13;4.93;;;1.13;;
47103;SDS011;32853;52.164;5.400;2022-09-21T17:59:16;7.15;;;1.60;;
47103;SDS011;32853;52.164;5.400;2022-09-21T18:02:18;5.18;;;1.80;;
47103;SDS011;32853;52.164;5.400;2022-09-21T18:04:58;9.70;;;2.30;;
47103;SDS011;32853;52.164;5.400;2022-09-21T18:07:28;5.93;;;1.92;;
47103;SDS011;32853;52.164;5.400;2022-09-21T18:09:53;6.50;;;1.70;;
47103;SDS011;32853;52.164;5.400;2022-09-21T18:15:27;7.15;;;1.90;;
47103;SDS011;32853;52.164;5.400;2022-09-21T18:21:03;7.68;;;2.10;;
47103;SDS011;32853;52.164;5.400;2022-09-21T18:26:43;8.95;;;1.85;;
47103;SDS011;32853;52.164;5.400;2022-09-21T18:29:19;4.10;;;2.27;;
47103;SDS011;32853;52.164;5.400;2022-09-21T18:37:30;9.98;;;2.42;;
47103;SDS011;32853;52.164;5.400;2022-09-21T18:40:18;7.85;;;2.13;;
47103;SDS011;32853;52.164;5.400;2022-09-21T18:53:36;6.75;;;2.28;;
47103;SDS011;32853;52.164;5.400;2022-09-21T18:56:03;8.98;;;3.60;;
47103;SDS011;32853;52.164;5.400;2022-09-21T18:58:30;5.95;;;2.13;;
47103;SDS011;32853;52.164;5.400;2022-09-21T19:00:55;7.10;;;1.95;;
47103;SDS011;32853;52.164;5.400;2022-09-21T19:03:27;7.40;;;1.90;;
47103;SDS011;32853;52.164;5.400;2022-09-21T19:11:20;8.87;;;2.60;;
47103;SDS011;32853;52.164;5.400;2022-09-21T19:21:54;8.02;;;2.55;;
47103;SDS011;32853;52.164;5.400;2022-09-21T19:24:30;8.25;;;2.47;;
47103;SDS011;32853;52.164;5.400;2022-09-21T19:27:20;8.02;;;2.50;;
47103;SDS011;32853;52.164;5.400;2022-09-21T19:29:55;10.32;;;2.65;;
47103;SDS011;32853;52.164;5.400;2022-09-21T19:35:15;8.85;;;3.20;;
47103;SDS011;32853;52.164;5.400;2022-09-21T19:37:46;9.98;;;2.50;;
47103;SDS011;32853;52.164;5.400;2022-09-21T19:40:16;7.63;;;2.72;;
47103;SDS011;32853;52.164;5.400;2022-09-21T19:48:21;6.93;;;2.58;;
47103;SDS011;32853;52.164;5.400;2022-09-21T19:50:52;8.27;;;2.60;;
47103;SDS011;32853;52.164;5.400;2022-09-21T19:53:26;9.65;;;2.97;;
47103;SDS011;32853;52.164;5.400;2022-09-21T19:56:11;10.27;;;2.60;;
47103;SDS011;32853;52.164;5.400;2022-09-21T19:58:57;10.23;;;3.00;;
47103;SDS011;32853;52.164;5.400;2022-09-21T20:01:47;8.00;;;2.47;;
47103;SDS011;32853;52.164;5.400;2022-09-21T20:04:33;6.78;;;2.30;;
47103;SDS011;32853;52.164;5.400;2022-09-21T20:12:47;7.97;;;3.45;;
47103;SDS011;32853;52.164;5.400;2022-09-21T20:15:25;6.93;;;3.23;;
47103;SDS011;32853;52.164;5.400;2022-09-21T20:18:08;9.35;;;3.38;;
47103;SDS011;32853;52.164;5.400;2022-09-21T20:20:40;7.70;;;3.20;;
47103;SDS011;32853;52.164;5.400;2022-09-21T20:23:09;9.32;;;4.03;;
47103;SDS011;32853;52.164;5.400;2022-09-21T20:25:37;8.95;;;3.67;;
47103;SDS011;32853;52.164;5.400;2022-09-21T20:28:12;10.55;;;4.53;;
47103;SDS011;32853;52.164;5.400;2022-09-21T20:30:39;11.82;;;6.53;;
47103;SDS011;32853;52.164;5.400;2022-09-21T20:33:06;17.75;;;7.95;;
47103;SDS011;32853;52.164;5.400;2022-09-21T20:35:40;16.80;;;7.67;;
47103;SDS011;32853;52.164;5.400;2022-09-21T20:38:13;15.48;;;7.75;;
47103;SDS011;32853;52.164;5.400;2022-09-21T20:40:54;13.98;;;7.18;;
47103;SDS011;32853;52.164;5.400;2022-09-21T20:43:26;15.83;;;7.27;;
47103;SDS011;32853;52.164;5.400;2022-09-21T20:45:56;15.05;;;8.35;;
47103;SDS011;32853;52.164;5.400;2022-09-21T20:48:23;14.13;;;7.28;;
47103;SDS011;32853;52.164;5.400;2022-09-21T20:50:51;11.47;;;6.03;;
47103;SDS011;32853;52.164;5.400;2022-09-21T20:53:20;13.82;;;6.05;;
47103;SDS011;32853;52.164;5.400;2022-09-21T20:55:56;12.95;;;6.80;;
47103;SDS011;32853;52.164;5.400;2022-09-21T20:58:23;13.95;;;7.22;;
47103;SDS011;32853;52.164;5.400;2022-09-21T21:00:51;17.63;;;6.67;;
47103;SDS011;32853;52.164;5.400;2022-09-21T21:03:17;13.43;;;6.38;;
47103;SDS011;32853;52.164;5.400;2022-09-21T21:05:43;15.48;;;6.45;;
47103;SDS011;32853;52.164;5.400;2022-09-21T21:08:14;12.10;;;6.07;;
47103;SDS011;32853;52.164;5.400;2022-09-21T21:10:43;13.05;;;6.00;;
47103;SDS011;32853;52.164;5.400;2022-09-21T21:13:10;12.70;;;6.47;;